Time;durP1;ratioP1;P1;durP2;ratioP2;P2;SDS_P1;SDS_P2;PMS_P1;PMS_P2;Temp;Humidity;BMP_temperature;BMP_pressure;BME280_temperature;BME280_humidity;BME280_pressure;Samples;Min_cycle;Max_cycle;Signal;HPM_P1;HPM_P2
2024/04/08 00:01:17;;;;;;;;;;;14.90;99.90;;;;;;4991984;28;19983;-50
2024/04/08 00:03:43;;;;;;;;;;;14.90;99.90;;;;;;4993976;28;19909;-52
2024/04/08 00:06:08;;;;;;;;;;;14.90;99.90;;;;;;4992553;28;19945;-51
2024/04/08 00:08:33;;;;;;;;;;;14.80;99.90;;;;;;4991427;28;19910;-51
2024/04/08 00:11:06;;;;;;;;;;;14.70;99.90;;;;;;4993698;28;21623;-52
2024/04/08 00:13:33;;;;;;;;;;;14.70;99.90;;;;;;4998096;28;20101;-51
2024/04/08 00:15:59;;;;;;;;;;;14.70;99.90;;;;;;4993848;28;19910;-52
2024/04/08 00:18:25;;;;;;;;;;;14.60;99.90;;;;;;4995261;28;19913;-51
2024/04/08 00:21:03;;;;;;;;;;;14.60;99.90;;;;;;5000541;28;19910;-52
2024/04/08 00:23:29;;;;;;;;;;;14.70;99.90;;;;;;4999925;28;20455;-50
2024/04/08 00:25:54;;;;;;;;;;;14.60;99.90;;;;;;4995685;28;19910;-54
2024/04/08 00:28:20;;;;;;;;;;;14.50;99.90;;;;;;4996409;28;19909;-51
2024/04/08 00:30:45;;;;;;;;;;;14.40;99.90;;;;;;4995988;28;19917;-51
2024/04/08 00:33:11;;;;;;;;;;;14.30;99.90;;;;;;4995574;28;20322;-53
2024/04/08 00:35:36;;;;;;;;;;;14.10;99.90;;;;;;4994602;28;19917;-50
2024/04/08 00:38:02;;;;;;;;;;;14.10;99.90;;;;;;4995516;28;20005;-53
2024/04/08 00:40:37;;;;;;;;;;;14.00;99.90;;;;;;4996352;28;20025;-52
2024/04/08 00:43:03;;;;;;;;;;;14.00;99.90;;;;;;4993714;28;20385;-50
2024/04/08 00:45:29;;;;;;;;;;;13.90;99.90;;;;;;4996229;28;19910;-52
2024/04/08 00:47:54;;;;;;;;;;;13.90;99.90;;;;;;4992036;28;19906;-51
2024/04/08 00:50:20;;;;;;;;;;;13.90;99.90;;;;;;4994676;28;19920;-52
2024/04/08 00:52:46;;;;;;;;;;;13.90;99.90;;;;;;4995376;28;19910;-53
2024/04/08 00:55:12;;;;;;;;;;;13.90;99.90;;;;;;4996099;28;19960;-54
2024/04/08 00:57:37;;;;;;;;;;;13.90;99.90;;;;;;4994863;28;19910;-53
2024/04/08 01:00:03;;;;;;;;;;;13.90;99.90;;;;;;4995448;28;19964;-53
2024/04/08 01:02:28;;;;;;;;;;;13.90;99.90;;;;;;4995482;28;19909;-50
2024/04/08 01:04:54;;;;;;;;;;;13.80;99.90;;;;;;4994957;28;19977;-49
2024/04/08 01:07:19;;;;;;;;;;;13.80;99.90;;;;;;4995562;28;19910;-52
2024/04/08 01:09:45;;;;;;;;;;;13.70;99.90;;;;;;4995445;28;19920;-51
2024/04/08 01:12:10;;;;;;;;;;;13.70;99.90;;;;;;4994780;28;19952;-49
2024/04/08 01:14:36;;;;;;;;;;;13.70;99.90;;;;;;4995189;28;19928;-50
2024/04/08 01:17:01;;;;;;;;;;;13.80;99.90;;;;;;4998102;28;19924;-51
2024/04/08 01:19:27;;;;;;;;;;;13.70;99.90;;;;;;4996760;28;19996;-50
2024/04/08 01:21:52;;;;;;;;;;;13.70;99.90;;;;;;4994173;28;19999;-50
2024/04/08 01:24:18;;;;;;;;;;;13.70;99.90;;;;;;4992657;28;19914;-52
2024/04/08 01:26:43;;;;;;;;;;;13.70;99.90;;;;;;4994074;28;19909;-50
2024/04/08 01:29:09;;;;;;;;;;;13.70;99.90;;;;;;4993094;28;19916;-50
2024/04/08 01:31:34;;;;;;;;;;;13.70;99.90;;;;;;4994778;28;19949;-50
2024/04/08 01:34:00;;;;;;;;;;;13.70;99.90;;;;;;4993839;28;19910;-51
2024/04/08 01:36:25;;;;;;;;;;;13.70;99.90;;;;;;4995215;28;19913;-50
2024/04/08 01:38:51;;;;;;;;;;;13.70;99.90;;;;;;4994709;28;19917;-54
2024/04/08 01:41:16;;;;;;;;;;;13.60;99.90;;;;;;4993336;28;20337;-53
2024/04/08 01:43:42;;;;;;;;;;;13.50;99.90;;;;;;4994857;28;19910;-50
2024/04/08 01:46:08;;;;;;;;;;;13.40;99.90;;;;;;4994858;28;20334;-52
2024/04/08 01:48:33;;;;;;;;;;;13.40;99.90;;;;;;4994068;28;19964;-49
2024/04/08 01:50:59;;;;;;;;;;;13.30;99.90;;;;;;4994913;28;19941;-50
2024/04/08 01:53:24;;;;;;;;;;;13.30;99.90;;;;;;4995321;28;19910;-51
2024/04/08 01:55:50;;;;;;;;;;;13.30;99.90;;;;;;4994157;28;19905;-50
2024/04/08 01:58:15;;;;;;;;;;;13.30;99.90;;;;;;4994805;28;19913;-49
2024/04/08 02:00:40;;;;;;;;;;;13.30;99.90;;;;;;4994233;28;19910;-52
2024/04/08 02:03:06;;;;;;;;;;;13.30;99.90;;;;;;4993139;28;20853;-51
2024/04/08 02:05:31;;;;;;;;;;;13.30;99.90;;;;;;4973393;28;20289;-52
2024/04/08 02:07:57;;;;;;;;;;;13.30;99.90;;;;;;4993450;28;19971;-51
2024/04/08 02:10:22;;;;;;;;;;;13.30;99.90;;;;;;4992137;28;19914;-50
2024/04/08 02:12:49;;;;;;;;;;;13.30;99.90;;;;;;4990408;28;19910;-54
2024/04/08 02:15:15;;;;;;;;;;;13.20;99.90;;;;;;4990511;28;19910;-51
2024/04/08 02:17:40;;;;;;;;;;;13.20;99.90;;;;;;4991017;28;20024;-51
2024/04/08 02:20:06;;;;;;;;;;;13.10;99.90;;;;;;4991882;28;19918;-55
2024/04/08 02:22:32;;;;;;;;;;;13.10;99.90;;;;;;4991498;28;20004;-50
2024/04/08 02:24:57;;;;;;;;;;;13.00;99.90;;;;;;4993487;28;19909;-54
2024/04/08 02:27:23;;;;;;;;;;;13.00;99.90;;;;;;4990898;28;19921;-54
2024/04/08 02:29:48;;;;;;;;;;;12.90;99.90;;;;;;4993685;28;20362;-53
2024/04/08 02:32:14;;;;;;;;;;;12.90;99.90;;;;;;4975476;28;19916;-54
2024/04/08 02:34:40;;;;;;;;;;;12.90;99.90;;;;;;4993776;28;19917;-54
2024/04/08 02:37:05;;;;;;;;;;;12.90;99.90;;;;;;4992280;28;20438;-50
2024/04/08 02:39:30;;;;;;;;;;;12.90;99.90;;;;;;4993321;28;20044;-52
2024/04/08 02:41:56;;;;;;;;;;;12.90;99.90;;;;;;4992818;28;20309;-51
2024/04/08 02:44:21;;;;;;;;;;;12.90;99.90;;;;;;4993471;28;20000;-49
2024/04/08 02:46:47;;;;;;;;;;;12.90;99.90;;;;;;4991445;28;20319;-51
2024/04/08 02:49:12;;;;;;;;;;;12.90;99.90;;;;;;4991790;28;19917;-53
2024/04/08 02:51:38;;;;;;;;;;;12.90;99.90;;;;;;4993387;28;19980;-52
2024/04/08 02:54:03;;;;;;;;;;;12.90;99.90;;;;;;4993478;28;20271;-50
2024/04/08 02:56:29;;;;;;;;;;;12.90;99.90;;;;;;4992583;28;19988;-50
2024/04/08 02:58:54;;;;;;;;;;;12.90;99.90;;;;;;4992683;28;20281;-49
2024/04/08 03:01:20;;;;;;;;;;;12.90;99.90;;;;;;5006924;22;19893;-52
2024/04/08 03:03:45;;;;;;;;;;;12.90;99.90;;;;;;5005639;28;20400;-54
2024/04/08 03:06:12;;;;;;;;;;;12.80;99.90;;;;;;5008428;28;19953;-54
2024/04/08 03:08:38;;;;;;;;;;;12.80;99.90;;;;;;5008544;28;20356;-54
2024/04/08 03:11:03;;;;;;;;;;;12.80;99.90;;;;;;5012635;28;20019;-55
2024/04/08 03:13:29;;;;;;;;;;;12.80;99.90;;;;;;4990396;28;19956;-53
2024/04/08 03:15:55;;;;;;;;;;;12.80;99.90;;;;;;4989822;28;19910;-56
2024/04/08 03:18:20;;;;;;;;;;;12.70;99.90;;;;;;4988298;28;19918;-52
2024/04/08 03:20:56;;;;;;;;;;;12.70;99.90;;;;;;4990314;28;19948;-54
2024/04/08 03:23:24;;;;;;;;;;;12.70;99.90;;;;;;4989823;28;19909;-54
2024/04/08 03:25:59;;;;;;;;;;;12.60;99.90;;;;;;4993232;28;19910;-54
2024/04/08 03:28:25;;;;;;;;;;;12.60;99.90;;;;;;4992626;28;19917;-50
2024/04/08 03:30:51;;;;;;;;;;;12.60;99.90;;;;;;4976240;28;19910;-54
2024/04/08 03:33:19;;;;;;;;;;;12.50;99.90;;;;;;4991471;28;20297;-53
2024/04/08 03:35:44;;;;;;;;;;;12.50;99.90;;;;;;4993834;28;19910;-56
2024/04/08 03:38:09;;;;;;;;;;;12.50;99.90;;;;;;4989931;28;20044;-53
2024/04/08 03:40:35;;;;;;;;;;;12.40;99.90;;;;;;4992411;28;19909;-55
2024/04/08 03:43:01;;;;;;;;;;;12.40;99.90;;;;;;4993290;28;20375;-51
2024/04/08 03:45:27;;;;;;;;;;;12.30;99.90;;;;;;4988931;28;19920;-55
2024/04/08 03:47:52;;;;;;;;;;;12.30;99.90;;;;;;4991024;28;19906;-54
2024/04/08 03:50:18;;;;;;;;;;;12.30;99.90;;;;;;4993291;28;20285;-55
2024/04/08 03:52:46;;;;;;;;;;;12.20;99.90;;;;;;4997631;28;19910;-55
2024/04/08 03:55:11;;;;;;;;;;;12.20;99.90;;;;;;4996732;28;19941;-56
2024/04/08 03:57:37;;;;;;;;;;;12.20;99.90;;;;;;4988178;28;19953;-51
2024/04/08 04:00:03;;;;;;;;;;;12.20;99.90;;;;;;4993775;28;19920;-53
2024/04/08 04:02:28;;;;;;;;;;;12.20;99.90;;;;;;4989589;28;19913;-55
2024/04/08 04:04:54;;;;;;;;;;;12.10;99.90;;;;;;4992924;28;20412;-53
2024/04/08 04:07:19;;;;;;;;;;;12.10;99.90;;;;;;4995819;28;19906;-53
2024/04/08 04:09:45;;;;;;;;;;;12.00;99.90;;;;;;4994417;28;19920;-51
2024/04/08 04:12:10;;;;;;;;;;;11.90;99.90;;;;;;4996931;28;19913;-54
2024/04/08 04:14:36;;;;;;;;;;;11.90;99.90;;;;;;4993604;28;19993;-54
2024/04/08 04:17:02;;;;;;;;;;;11.90;99.90;;;;;;4992701;28;19917;-53
2024/04/08 04:19:27;;;;;;;;;;;11.90;99.90;;;;;;4993613;28;20405;-50
2024/04/08 04:21:52;;;;;;;;;;;11.80;99.90;;;;;;4994005;28;20001;-53
2024/04/08 04:24:18;;;;;;;;;;;11.80;99.90;;;;;;4996812;28;19913;-55
2024/04/08 04:26:43;;;;;;;;;;;11.80;99.90;;;;;;4994014;28;20288;-52
2024/04/08 04:29:09;;;;;;;;;;;11.80;99.90;;;;;;4992772;28;19917;-50
2024/04/08 04:31:41;;;;;;;;;;;11.80;99.90;;;;;;4992655;28;19910;-57
2024/04/08 04:34:07;;;;;;;;;;;11.80;99.90;;;;;;4993570;28;20314;-52
2024/04/08 04:36:32;;;;;;;;;;;11.70;99.90;;;;;;4990635;28;19985;-53
2024/04/08 04:38:58;;;;;;;;;;;11.70;99.90;;;;;;4990428;28;20417;-53
2024/04/08 04:41:23;;;;;;;;;;;11.60;99.90;;;;;;4989359;28;19997;-51
2024/04/08 04:43:49;;;;;;;;;;;11.50;99.90;;;;;;4989181;28;19909;-53
2024/04/08 04:46:14;;;;;;;;;;;11.40;99.90;;;;;;4990751;28;19996;-57
2024/04/08 04:48:40;;;;;;;;;;;11.40;99.90;;;;;;4995875;28;19916;-53
2024/04/08 04:51:06;;;;;;;;;;;11.30;99.90;;;;;;4995984;28;19916;-51
2024/04/08 04:53:31;;;;;;;;;;;11.30;99.90;;;;;;4994205;28;20899;-53
2024/04/08 04:55:57;;;;;;;;;;;11.30;99.90;;;;;;4989302;28;19914;-54
2024/04/08 04:58:22;;;;;;;;;;;11.20;99.90;;;;;;4994855;28;19909;-55
2024/04/08 05:00:48;;;;;;;;;;;11.20;99.90;;;;;;4994357;28;19909;-52
2024/04/08 05:03:14;;;;;;;;;;;11.30;99.90;;;;;;4994909;28;20365;-53
2024/04/08 05:05:39;;;;;;;;;;;11.20;99.90;;;;;;4994956;28;19910;-50
2024/04/08 05:08:06;;;;;;;;;;;11.30;99.90;;;;;;4987410;28;20273;-51
2024/04/08 05:10:32;;;;;;;;;;;11.30;99.90;;;;;;4991353;28;20397;-54
2024/04/08 05:12:57;;;;;;;;;;;11.30;99.90;;;;;;4995843;28;20004;-51
2024/04/08 05:15:22;;;;;;;;;;;11.30;99.90;;;;;;4995125;28;20484;-55
2024/04/08 05:17:48;;;;;;;;;;;11.40;99.90;;;;;;4990382;28;19910;-53
2024/04/08 05:20:14;;;;;;;;;;;11.50;99.90;;;;;;4986395;28;19971;-56
2024/04/08 05:22:47;;;;;;;;;;;11.50;99.90;;;;;;4989867;28;19945;-54
2024/04/08 05:25:12;;;;;;;;;;;11.60;99.90;;;;;;4994681;28;19931;-54
2024/04/08 05:27:38;;;;;;;;;;;11.70;99.90;;;;;;4986468;28;19914;-54
2024/04/08 05:30:05;;;;;;;;;;;11.90;99.90;;;;;;4992392;28;19959;-53
2024/04/08 05:32:31;;;;;;;;;;;11.90;99.90;;;;;;4994273;28;20867;-50
2024/04/08 05:34:56;;;;;;;;;;;12.10;99.90;;;;;;4986435;28;19932;-54
2024/04/08 05:37:22;;;;;;;;;;;12.10;99.90;;;;;;4986463;28;19910;-50
2024/04/08 05:39:47;;;;;;;;;;;12.30;99.90;;;;;;4989612;28;19992;-52
2024/04/08 05:42:13;;;;;;;;;;;12.40;99.90;;;;;;4988820;28;19917;-54
2024/04/08 05:44:38;;;;;;;;;;;12.50;99.90;;;;;;4995204;28;19905;-52
2024/04/08 05:47:04;;;;;;;;;;;12.70;99.90;;;;;;4994892;28;19912;-54
2024/04/08 05:49:29;;;;;;;;;;;12.90;99.90;;;;;;4993316;28;19968;-51
2024/04/08 05:51:55;;;;;;;;;;;13.00;99.90;;;;;;4988970;28;20336;-54
2024/04/08 05:54:20;;;;;;;;;;;13.00;99.90;;;;;;4989655;28;19905;-52
2024/04/08 05:56:46;;;;;;;;;;;13.10;99.90;;;;;;4993796;28;19945;-54
2024/04/08 05:59:11;;;;;;;;;;;13.10;99.90;;;;;;4993830;28;19960;-56
2024/04/08 06:01:37;;;;;;;;;;;13.30;99.90;;;;;;4990934;28;19941;-52
2024/04/08 06:04:03;;;;;;;;;;;13.40;99.90;;;;;;4974562;28;19956;-52
2024/04/08 06:06:29;;;;;;;;;;;13.50;99.90;;;;;;4991710;28;19909;-56
2024/04/08 06:09:04;;;;;;;;;;;13.60;99.90;;;;;;4993489;28;19905;-52
2024/04/08 06:11:30;;;;;;;;;;;13.70;99.90;;;;;;4989897;28;19920;-53
2024/04/08 06:13:55;;;;;;;;;;;14.10;99.90;;;;;;4990887;28;19906;-55
2024/04/08 06:16:21;;;;;;;;;;;14.20;99.90;;;;;;4991795;28;20273;-53
2024/04/08 06:18:46;;;;;;;;;;;14.20;99.90;;;;;;4993033;28;20412;-51
2024/04/08 06:21:11;;;;;;;;;;;14.40;99.90;;;;;;4974460;28;19924;-53
2024/04/08 06:23:37;;;;;;;;;;;14.70;99.90;;;;;;4991435;28;19910;-50
2024/04/08 06:26:03;;;;;;;;;;;14.80;99.90;;;;;;4984058;28;20503;-57
2024/04/08 06:28:31;;;;;;;;;;;14.60;99.90;;;;;;4993282;28;19941;-53
2024/04/08 06:30:56;;;;;;;;;;;15.00;99.90;;;;;;4989001;28;20033;-53
2024/04/08 06:33:22;;;;;;;;;;;15.30;99.90;;;;;;4991147;28;19984;-56
2024/04/08 06:35:48;;;;;;;;;;;15.20;99.90;;;;;;4993579;28;19906;-51
2024/04/08 06:38:14;;;;;;;;;;;15.10;99.90;;;;;;4990336;28;20474;-55
2024/04/08 06:40:39;;;;;;;;;;;15.60;99.90;;;;;;4993524;28;19910;-51
2024/04/08 06:43:05;;;;;;;;;;;15.80;99.90;;;;;;4990725;28;20000;-53
2024/04/08 06:45:31;;;;;;;;;;;16.00;99.90;;;;;;4992843;28;19909;-55
2024/04/08 06:47:56;;;;;;;;;;;16.00;99.90;;;;;;4989478;28;20389;-52
2024/04/08 06:50:21;;;;;;;;;;;15.90;99.90;;;;;;4990852;28;19921;-52
2024/04/08 06:52:47;;;;;;;;;;;16.40;99.90;;;;;;4975405;28;19948;-54
2024/04/08 06:55:12;;;;;;;;;;;16.70;99.90;;;;;;4990899;28;19920;-51
2024/04/08 06:57:38;;;;;;;;;;;16.20;99.90;;;;;;4991408;28;20361;-54
2024/04/08 07:00:04;;;;;;;;;;;15.90;99.90;;;;;;4992836;28;19945;-53
2024/04/08 07:02:29;;;;;;;;;;;15.90;99.90;;;;;;4992343;28;19922;-54
2024/04/08 07:04:55;;;;;;;;;;;16.30;99.90;;;;;;4988673;28;19906;-50
2024/04/08 07:07:20;;;;;;;;;;;16.50;99.90;;;;;;4991706;28;19952;-50
2024/04/08 07:09:46;;;;;;;;;;;16.00;99.90;;;;;;4992689;28;19909;-50
2024/04/08 07:12:11;;;;;;;;;;;15.90;99.90;;;;;;4991422;28;20012;-55
2024/04/08 07:14:37;;;;;;;;;;;16.00;99.90;;;;;;4989164;28;20416;-51
2024/04/08 07:17:03;;;;;;;;;;;16.00;99.90;;;;;;4990939;28;19984;-50
2024/04/08 07:19:29;;;;;;;;;;;15.90;99.90;;;;;;4992551;28;19945;-53
2024/04/08 07:21:54;;;;;;;;;;;16.10;99.90;;;;;;4992061;28;19913;-51
2024/04/08 07:24:20;;;;;;;;;;;16.10;99.90;;;;;;4989601;28;19910;-53
2024/04/08 07:26:45;;;;;;;;;;;16.00;99.90;;;;;;4986936;28;20301;-51
2024/04/08 07:29:11;;;;;;;;;;;15.80;99.90;;;;;;4987341;28;19918;-51
2024/04/08 07:31:36;;;;;;;;;;;15.80;99.90;;;;;;4990747;28;19920;-52
2024/04/08 07:34:02;;;;;;;;;;;15.70;99.90;;;;;;4990438;28;19925;-54
2024/04/08 07:36:28;;;;;;;;;;;15.70;99.90;;;;;;4991410;28;19910;-54
2024/04/08 07:38:53;;;;;;;;;;;15.70;99.90;;;;;;4987002;28;19910;-50
2024/04/08 07:41:19;;;;;;;;;;;15.70;99.90;;;;;;4989209;28;19964;-53
2024/04/08 07:43:44;;;;;;;;;;;15.60;99.90;;;;;;4991846;28;19910;-55
2024/04/08 07:46:10;;;;;;;;;;;15.70;99.90;;;;;;4986931;28;20385;-53
2024/04/08 07:48:36;;;;;;;;;;;15.60;99.90;;;;;;4971820;28;19916;-50
2024/04/08 07:51:02;;;;;;;;;;;15.70;99.90;;;;;;4986951;28;20391;-55
2024/04/08 07:53:28;;;;;;;;;;;15.60;99.90;;;;;;4989039;28;20004;-55
2024/04/08 07:55:53;;;;;;;;;;;15.70;99.90;;;;;;4985719;28;19906;-52
2024/04/08 07:58:19;;;;;;;;;;;15.90;99.90;;;;;;4990094;28;19916;-54
2024/04/08 08:00:55;;;;;;;;;;;15.80;99.90;;;;;;4989373;28;19916;-51
2024/04/08 08:03:20;;;;;;;;;;;15.80;99.90;;;;;;4984536;28;19921;-51
2024/04/08 08:05:45;;;;;;;;;;;15.90;99.90;;;;;;4987716;28;19913;-52
2024/04/08 08:08:11;;;;;;;;;;;15.90;99.90;;;;;;4988991;28;20357;-51
2024/04/08 08:10:36;;;;;;;;;;;16.00;99.90;;;;;;4989082;28;19925;-52
2024/04/08 08:13:02;;;;;;;;;;;16.10;99.90;;;;;;4987084;28;20001;-53
2024/04/08 08:15:27;;;;;;;;;;;16.00;99.90;;;;;;4991896;28;20393;-54
2024/04/08 08:17:54;;;;;;;;;;;16.10;99.90;;;;;;4997026;28;19905;-54
2024/04/08 08:20:19;;;;;;;;;;;16.10;99.90;;;;;;4989167;28;19910;-54
2024/04/08 08:22:45;;;;;;;;;;;16.20;99.90;;;;;;4990874;28;19920;-51
2024/04/08 08:25:10;;;;;;;;;;;16.20;99.90;;;;;;4974503;28;19906;-51
2024/04/08 08:27:36;;;;;;;;;;;16.20;99.90;;;;;;4984721;28;19906;-55
2024/04/08 08:30:01;;;;;;;;;;;16.30;99.90;;;;;;4983126;28;19913;-55
2024/04/08 08:32:27;;;;;;;;;;;16.30;99.90;;;;;;4990155;28;19914;-54
2024/04/08 08:34:53;;;;;;;;;;;16.50;99.90;;;;;;4991952;28;19910;-56
2024/04/08 08:37:18;;;;;;;;;;;16.60;99.90;;;;;;4970848;28;19949;-55
2024/04/08 08:39:44;;;;;;;;;;;16.50;99.90;;;;;;4990584;28;20348;-51
2024/04/08 08:42:14;;;;;;;;;;;16.40;99.90;;;;;;4992562;28;19909;-54
2024/04/08 08:44:43;;;;;;;;;;;16.70;99.90;;;;;;4991246;28;19910;-52
2024/04/08 08:47:08;;;;;;;;;;;16.80;99.90;;;;;;4987333;28;19910;-51
2024/04/08 08:49:34;;;;;;;;;;;16.90;99.90;;;;;;4990530;28;20528;-53
2024/04/08 08:52:00;;;;;;;;;;;16.90;99.90;;;;;;4988803;28;19924;-50
2024/04/08 08:54:26;;;;;;;;;;;17.00;99.90;;;;;;4992689;28;19929;-54
2024/04/08 08:56:51;;;;;;;;;;;17.10;99.90;;;;;;4991267;28;19914;-52
2024/04/08 08:59:17;;;;;;;;;;;17.50;99.90;;;;;;4993626;28;19937;-55
2024/04/08 09:01:42;;;;;;;;;;;17.90;99.90;;;;;;4986173;28;19921;-55
2024/04/08 09:04:12;;;;;;;;;;;18.80;99.90;;;;;;4988506;28;19910;-52
2024/04/08 09:06:38;;;;;;;;;;;19.50;99.90;;;;;;4987397;28;19965;-55
2024/04/08 09:09:04;;;;;;;;;;;19.20;99.90;;;;;;4994138;28;20328;-54
2024/04/08 09:11:30;;;;;;;;;;;19.20;99.90;;;;;;4986121;28;19914;-53
2024/04/08 09:14:05;;;;;;;;;;;19.60;99.90;;;;;;4995046;28;19960;-57
2024/04/08 09:16:31;;;;;;;;;;;20.20;99.90;;;;;;4993758;28;20381;-52
2024/04/08 09:18:56;;;;;;;;;;;20.80;99.90;;;;;;4993939;28;19906;-52
2024/04/08 09:21:22;;;;;;;;;;;20.80;99.90;;;;;;4985929;28;20381;-55
2024/04/08 09:23:51;;;;;;;;;;;21.50;99.90;;;;;;4988835;28;19909;-56
2024/04/08 09:26:17;;;;;;;;;;;21.80;99.90;;;;;;4985515;28;19910;-51
2024/04/08 09:28:42;;;;;;;;;;;22.10;99.90;;;;;;4993650;28;20274;-51
2024/04/08 09:31:08;;;;;;;;;;;22.30;99.90;;;;;;4989410;28;19921;-54
2024/04/08 09:33:33;;;;;;;;;;;23.00;99.90;;;;;;4992248;28;19943;-52
2024/04/08 09:35:59;;;;;;;;;;;22.60;99.90;;;;;;4989168;28;19932;-51
2024/04/08 09:38:25;;;;;;;;;;;23.20;99.90;;;;;;4990376;28;20029;-53
2024/04/08 09:40:51;;;;;;;;;;;23.30;99.90;;;;;;4994800;28;19906;-51
2024/04/08 09:43:17;;;;;;;;;;;23.90;99.40;;;;;;4987326;28;20481;-51
2024/04/08 09:45:43;;;;;;;;;;;23.30;99.90;;;;;;4990570;28;19984;-55
2024/04/08 09:48:13;;;;;;;;;;;23.20;99.80;;;;;;4990515;28;20277;-50
2024/04/08 09:50:41;;;;;;;;;;;23.50;99.90;;;;;;4992464;28;19910;-53
2024/04/08 09:53:06;;;;;;;;;;;23.70;99.00;;;;;;4990123;28;19964;-54
2024/04/08 09:55:34;;;;;;;;;;;23.90;99.50;;;;;;4987831;28;19961;-51
2024/04/08 09:58:00;;;;;;;;;;;23.70;99.30;;;;;;4994337;28;20378;-53
2024/04/08 10:00:29;;;;;;;;;;;23.80;99.90;;;;;;4992323;28;19999;-52
2024/04/08 10:02:55;;;;;;;;;;;23.40;99.30;;;;;;4992466;28;19913;-50
2024/04/08 10:05:21;;;;;;;;;;;23.50;99.40;;;;;;4992030;28;19975;-53
2024/04/08 10:07:46;;;;;;;;;;;23.60;98.30;;;;;;4997015;28;20381;-50
2024/04/08 10:10:12;;;;;;;;;;;23.40;98.90;;;;;;4993686;28;20358;-48
2024/04/08 10:12:40;;;;;;;;;;;23.10;97.80;;;;;;4990482;28;19910;-51
2024/04/08 10:15:12;;;;;;;;;;;23.10;98.10;;;;;;4989169;28;20001;-51
2024/04/08 10:17:44;;;;;;;;;;;22.90;98.90;;;;;;4988740;28;19917;-55
2024/04/08 10:20:12;;;;;;;;;;;23.10;98.00;;;;;;4992723;28;20282;-53
2024/04/08 10:22:38;;;;;;;;;;;23.10;98.20;;;;;;4992930;28;19910;-52
2024/04/08 10:25:04;;;;;;;;;;;22.60;98.20;;;;;;4990660;28;20391;-52
2024/04/08 10:27:33;;;;;;;;;;;22.40;99.90;;;;;;4993858;28;20004;-55
2024/04/08 10:29:59;;;;;;;;;;;22.60;99.90;;;;;;4991603;28;19914;-55
2024/04/08 10:32:25;;;;;;;;;;;23.00;99.90;;;;;;4991687;28;20361;-55
2024/04/08 10:34:53;;;;;;;;;;;23.00;98.90;;;;;;4990311;28;19916;-53
2024/04/08 10:37:19;;;;;;;;;;;23.30;98.80;;;;;;4993141;28;19945;-53
2024/04/08 10:39:44;;;;;;;;;;;23.10;98.40;;;;;;4985563;28;19956;-55
2024/04/08 10:42:14;;;;;;;;;;;23.10;99.00;;;;;;4991817;28;19921;-55
2024/04/08 10:44:40;;;;;;;;;;;23.30;98.80;;;;;;4977495;28;20345;-54
2024/04/08 10:47:06;;;;;;;;;;;23.20;98.80;;;;;;4991319;28;19951;-53
2024/04/08 10:49:32;;;;;;;;;;;23.30;97.40;;;;;;4988038;28;19925;-51
2024/04/08 10:51:58;;;;;;;;;;;23.20;97.40;;;;;;4989394;28;19910;-55
2024/04/08 10:54:23;;;;;;;;;;;23.10;98.10;;;;;;4991125;28;20377;-55
2024/04/08 10:56:49;;;;;;;;;;;22.90;98.10;;;;;;4980524;28;19909;-53
2024/04/08 10:59:14;;;;;;;;;;;22.70;98.20;;;;;;4988817;28;19917;-52
2024/04/08 11:01:40;;;;;;;;;;;22.50;99.20;;;;;;4985609;28;19913;-51
2024/04/08 11:04:06;;;;;;;;;;;22.40;98.90;;;;;;4987958;28;19906;-55
2024/04/08 11:06:31;;;;;;;;;;;22.30;99.00;;;;;;4992822;28;20369;-55
2024/04/08 11:08:57;;;;;;;;;;;22.30;99.20;;;;;;4991411;28;20001;-51
2024/04/08 11:11:24;;;;;;;;;;;22.20;99.20;;;;;;4990399;28;19967;-56
2024/04/08 11:13:50;;;;;;;;;;;21.90;99.00;;;;;;4984772;28;19921;-54
2024/04/08 11:16:16;;;;;;;;;;;22.00;99.60;;;;;;4992696;28;19905;-57
2024/04/08 11:18:41;;;;;;;;;;;21.90;99.50;;;;;;4986867;28;19910;-55
2024/04/08 11:21:07;;;;;;;;;;;21.80;99.90;;;;;;4987193;28;20293;-54
2024/04/08 11:23:32;;;;;;;;;;;21.50;99.90;;;;;;4987907;28;19922;-51
2024/04/08 11:25:58;;;;;;;;;;;21.50;99.90;;;;;;4991694;28;19964;-56
2024/04/08 11:28:24;;;;;;;;;;;21.70;99.90;;;;;;4992637;28;19963;-54
2024/04/08 11:30:49;;;;;;;;;;;22.00;99.90;;;;;;4988543;28;19929;-58
2024/04/08 11:33:15;;;;;;;;;;;22.30;99.90;;;;;;4992441;28;20317;-52
2024/04/08 11:35:40;;;;;;;;;;;22.50;99.90;;;;;;4991675;28;19914;-55
2024/04/08 11:38:09;;;;;;;;;;;22.80;98.80;;;;;;4952379;28;19918;-54
2024/04/08 11:40:34;;;;;;;;;;;22.60;99.30;;;;;;4973698;28;19906;-55
2024/04/08 11:43:00;;;;;;;;;;;22.60;99.50;;;;;;4988929;28;19917;-54
2024/04/08 11:45:28;;;;;;;;;;;22.80;99.20;;;;;;4992431;28;20339;-52
2024/04/08 11:49:12;;;;;;;;;;;22.80;99.40;;;;;;5580278;25;19923;-55
2024/04/08 11:51:37;;;;;;;;;;;22.80;99.90;;;;;;5553401;25;19927;-53
2024/04/08 11:54:03;;;;;;;;;;;23.10;98.70;;;;;;5537424;25;20326;-54
2024/04/08 11:56:28;;;;;;;;;;;23.10;98.70;;;;;;5527143;25;19927;-54
2024/04/08 11:58:54;;;;;;;;;;;23.40;98.30;;;;;;5531216;25;19933;-56
2024/04/08 12:01:20;;;;;;;;;;;23.80;98.00;;;;;;5520649;25;20277;-51
2024/04/08 12:03:45;;;;;;;;;;;23.50;98.90;;;;;;5531064;25;19942;-50
2024/04/08 12:06:11;;;;;;;;;;;23.50;99.00;;;;;;5524558;25;20334;-49
2024/04/08 12:08:36;;;;;;;;;;;23.70;97.50;;;;;;5520439;25;19956;-50
2024/04/08 12:11:03;;;;;;;;;;;23.40;97.60;;;;;;5542662;25;19927;-51
2024/04/08 12:13:28;;;;;;;;;;;23.40;99.30;;;;;;5528197;25;20365;-53
2024/04/08 12:15:54;;;;;;;;;;;23.40;99.10;;;;;;5540003;25;19934;-50
2024/04/08 12:18:19;;;;;;;;;;;23.60;98.70;;;;;;5502200;21;19930;-56
2024/04/08 12:20:44;;;;;;;;;;;23.60;96.90;;;;;;5359737;26;19930;-51
2024/04/08 12:23:11;;;;;;;;;;;23.40;97.50;;;;;;5357989;26;19958;-53
2024/04/08 12:25:37;;;;;;;;;;;23.60;98.30;;;;;;5356148;26;20371;-51
2024/04/08 12:28:03;;;;;;;;;;;23.60;97.70;;;;;;5354015;26;19962;-52
2024/04/08 12:30:29;;;;;;;;;;;23.60;98.20;;;;;;5390708;26;19941;-53
2024/04/08 12:32:54;;;;;;;;;;;23.50;98.30;;;;;;5379025;26;19930;-52
2024/04/08 12:35:20;;;;;;;;;;;23.40;98.40;;;;;;5364523;26;19929;-51
2024/04/08 12:37:45;;;;;;;;;;;23.30;99.10;;;;;;5392971;26;19937;-52
2024/04/08 12:40:11;;;;;;;;;;;23.30;99.50;;;;;;5394458;26;19937;-53
2024/04/08 12:42:36;;;;;;;;;;;23.20;98.90;;;;;;5385257;26;19999;-51
2024/04/08 12:45:02;;;;;;;;;;;23.30;98.70;;;;;;5389216;26;19930;-53
2024/04/08 12:47:28;;;;;;;;;;;23.20;99.20;;;;;;5396552;26;19936;-54
2024/04/08 12:49:53;;;;;;;;;;;23.50;98.40;;;;;;5396980;26;20271;-53
2024/04/08 12:52:21;;;;;;;;;;;23.80;97.60;;;;;;5384705;26;20380;-51
2024/04/08 12:54:46;;;;;;;;;;;24.10;98.30;;;;;;5364040;26;19936;-56
2024/04/08 12:57:12;;;;;;;;;;;24.30;96.30;;;;;;5380023;26;20264;-54
2024/04/08 12:59:37;;;;;;;;;;;24.50;96.40;;;;;;5370795;26;19930;-51
2024/04/08 13:02:03;;;;;;;;;;;24.50;96.40;;;;;;5274086;26;19931;-54
2024/04/08 13:04:28;;;;;;;;;;;24.30;96.60;;;;;;5276377;27;19931;-53
2024/04/08 13:06:54;;;;;;;;;;;24.00;96.30;;;;;;5277487;27;19931;-52
2024/04/08 13:09:19;;;;;;;;;;;24.20;97.10;;;;;;5277782;27;19941;-52
2024/04/08 13:11:45;;;;;;;;;;;24.20;96.90;;;;;;5275484;27;20288;-57
2024/04/08 13:14:10;;;;;;;;;;;24.00;96.90;;;;;;5277779;27;19935;-51
2024/04/08 13:16:36;;;;;;;;;;;23.90;97.40;;;;;;5275962;27;19939;-53
2024/04/08 13:19:01;;;;;;;;;;;23.50;96.70;;;;;;5278240;27;20289;-54
2024/04/08 13:21:27;;;;;;;;;;;23.40;97.90;;;;;;5287267;27;19938;-52
2024/04/08 13:23:52;;;;;;;;;;;23.50;97.90;;;;;;5276798;27;19931;-51
2024/04/08 13:26:18;;;;;;;;;;;23.60;97.50;;;;;;5275810;27;20321;-50
2024/04/08 13:28:44;;;;;;;;;;;23.80;97.50;;;;;;5292539;27;20019;-54
2024/04/08 13:31:09;;;;;;;;;;;24.00;97.00;;;;;;5276671;27;20001;-58
2024/04/08 13:33:35;;;;;;;;;;;24.20;96.90;;;;;;5282535;27;19930;-52
2024/04/08 13:36:00;;;;;;;;;;;24.10;97.10;;;;;;5286884;27;19932;-57
2024/04/08 13:38:26;;;;;;;;;;;24.30;96.30;;;;;;5280838;27;19931;-56
2024/04/08 13:40:51;;;;;;;;;;;24.50;95.90;;;;;;5302315;27;19942;-53
2024/04/08 13:43:18;;;;;;;;;;;24.40;96.90;;;;;;5279176;27;19935;-52
2024/04/08 13:45:43;;;;;;;;;;;24.20;96.50;;;;;;5278475;27;19938;-52
2024/04/08 13:48:09;;;;;;;;;;;24.00;95.80;;;;;;5288179;26;19930;-57
2024/04/08 13:50:35;;;;;;;;;;;23.80;95.00;;;;;;5279072;27;19938;-56
2024/04/08 13:53:00;;;;;;;;;;;23.50;94.80;;;;;;5282709;27;20022;-54
2024/04/08 13:55:26;;;;;;;;;;;23.50;94.60;;;;;;5270488;27;19942;-57
2024/04/08 13:57:51;;;;;;;;;;;23.40;94.90;;;;;;5312736;26;20306;-54
2024/04/08 14:00:17;;;;;;;;;;;23.40;95.10;;;;;;5278945;27;19943;-55
2024/04/08 14:02:42;;;;;;;;;;;23.20;94.30;;;;;;5295345;26;19970;-56
2024/04/08 14:05:08;;;;;;;;;;;23.10;94.40;;;;;;5310659;27;19942;-57
2024/04/08 14:07:33;;;;;;;;;;;23.00;95.00;;;;;;5292660;27;19939;-57
2024/04/08 14:09:59;;;;;;;;;;;22.90;94.80;;;;;;5311873;27;19930;-55